createdAt,value
2023-01-28T00:02:26.030Z,20.48
2023-01-28T00:04:58.051Z,19.75
2023-01-28T00:07:29.950Z,16.50
2023-01-28T00:10:01.939Z,17.35
2023-01-28T00:12:33.794Z,17.85
2023-01-28T00:15:06.115Z,20.70
2023-01-28T00:17:38.041Z,16.65
2023-01-28T00:20:10.664Z,16.50
2023-01-28T00:22:48.037Z,18.00
2023-01-28T00:25:21.098Z,19.50
2023-01-28T00:27:53.018Z,19.90
2023-01-28T00:30:24.930Z,17.58
2023-01-28T00:32:56.945Z,23.52
2023-01-28T00:35:30.091Z,16.00
2023-01-28T00:38:03.701Z,19.50
2023-01-28T00:40:35.710Z,16.05
2023-01-28T00:43:08.120Z,17.85
2023-01-28T00:45:40.041Z,17.05
2023-01-28T00:48:11.988Z,15.85
2023-01-28T00:50:45.629Z,16.35
2023-01-28T00:53:18.636Z,17.35
2023-01-28T00:55:50.503Z,16.92
2023-01-28T00:58:24.223Z,15.75
2023-01-28T01:00:56.066Z,15.10
2023-01-28T01:03:28.043Z,15.75
2023-01-28T01:05:59.912Z,18.63
2023-01-28T01:08:52.455Z,17.08
2023-01-28T01:11:48.466Z,18.13
2023-01-28T01:14:20.321Z,18.77
2023-01-28T01:16:52.195Z,15.82
2023-01-28T01:19:24.314Z,16.55
2023-01-28T01:21:57.186Z,18.58
2023-01-28T01:24:34.261Z,16.15
2023-01-28T01:27:06.184Z,17.83
2023-01-28T01:29:39.047Z,14.88
2023-01-28T01:32:12.281Z,15.23
2023-01-28T01:34:44.783Z,15.35
2023-01-28T01:37:16.806Z,16.65
2023-01-28T01:39:49.154Z,17.65
2023-01-28T01:42:21.580Z,17.77
2023-01-28T01:45:13.024Z,16.92
2023-01-28T01:48:18.750Z,17.73
2023-01-28T01:51:00.869Z,18.58
2023-01-28T01:53:32.952Z,17.40
2023-01-28T01:56:09.097Z,18.33
2023-01-28T01:58:44.089Z,17.48
2023-01-28T02:01:17.783Z,18.50
2023-01-28T02:03:59.675Z,15.75
2023-01-28T02:06:32.345Z,16.27
2023-01-28T02:09:22.409Z,17.17
2023-01-28T02:12:00.038Z,19.58
2023-01-28T02:14:35.732Z,16.25
2023-01-28T02:17:07.871Z,17.48
2023-01-28T02:20:21.889Z,16.77
2023-01-28T02:23:12.585Z,18.80
2023-01-28T02:26:04.764Z,16.13
2023-01-28T02:28:39.707Z,17.05
2023-01-28T02:31:22.024Z,18.10
2023-01-28T02:34:08.722Z,22.88
2023-01-28T02:37:02.861Z,17.35
2023-01-28T02:39:41.440Z,17.75
2023-01-28T02:42:19.734Z,16.77
2023-01-28T02:44:52.536Z,15.00
2023-01-28T02:47:42.876Z,15.80
2023-01-28T02:50:19.085Z,16.38
2023-01-28T02:53:44.319Z,17.30
2023-01-28T02:56:34.554Z,16.05
2023-01-28T02:59:35.365Z,16.75
2023-01-28T03:02:11.004Z,16.02
2023-01-28T03:04:58.709Z,16.48
2023-01-28T03:07:33.762Z,16.42
2023-01-28T03:10:09.347Z,15.20
2023-01-28T03:13:01.731Z,16.63
2023-01-28T03:15:57.075Z,16.42
2023-01-28T03:19:02.843Z,15.80
2023-01-28T03:22:01.383Z,15.02
2023-01-28T03:25:05.997Z,15.70
2023-01-28T03:28:11.718Z,15.05
2023-01-28T03:31:08.333Z,17.52
2023-01-28T03:34:06.217Z,14.52
2023-01-28T03:36:47.453Z,18.33
2023-01-28T03:39:37.955Z,16.27
2023-01-28T03:42:15.137Z,15.68
2023-01-28T03:45:08.142Z,14.65
2023-01-28T03:47:40.808Z,17.95
2023-01-28T03:50:15.535Z,18.08
2023-01-28T03:53:13.505Z,18.17
2023-01-28T03:55:58.897Z,15.52
2023-01-28T03:58:49.390Z,20.80
2023-01-28T04:01:21.903Z,17.23
2023-01-28T04:03:54.125Z,14.93
2023-01-28T04:06:32.447Z,20.05
2023-01-28T04:09:10.040Z,15.73
2023-01-28T04:11:53.195Z,17.08
2023-01-28T04:14:31.266Z,18.70
2023-01-28T04:17:12.330Z,19.42
2023-01-28T04:19:44.687Z,15.82
2023-01-28T04:22:16.512Z,14.80
2023-01-28T04:24:48.459Z,16.23
2023-01-28T04:27:22.966Z,19.10
2023-01-28T04:29:55.636Z,16.02
2023-01-28T04:32:52.359Z,16.08
2023-01-28T04:35:38.750Z,15.88
2023-01-28T04:38:14.751Z,16.15
2023-01-28T04:40:54.538Z,15.35
2023-01-28T04:44:29.412Z,15.93
2023-01-28T04:50:29.994Z,15.50
2023-01-28T04:53:14.680Z,16.20
2023-01-28T04:55:57.929Z,18.40
2023-01-28T04:58:31.113Z,17.00
2023-01-28T05:01:51.476Z,17.10
2023-01-28T05:04:24.615Z,15.60
2023-01-28T05:06:58.569Z,13.55
2023-01-28T05:09:35.539Z,14.95
2023-01-28T05:12:08.196Z,15.10
2023-01-28T05:14:42.281Z,13.75
2023-01-28T05:17:18.547Z,14.65
2023-01-28T05:19:51.107Z,15.60
2023-01-28T05:22:26.926Z,14.70
2023-01-28T05:25:16.355Z,15.48
2023-01-28T05:27:52.634Z,15.27
2023-01-28T05:30:24.612Z,13.43
2023-01-28T05:32:57.263Z,14.73
2023-01-28T05:35:29.893Z,16.08
2023-01-28T05:38:01.876Z,17.20
2023-01-28T05:40:33.809Z,15.88
2023-01-28T05:43:06.158Z,15.20
2023-01-28T05:45:43.065Z,16.73
2023-01-28T05:48:37.826Z,15.50
2023-01-28T05:51:36.187Z,16.77
2023-01-28T05:54:09.944Z,18.58
2023-01-28T05:56:41.887Z,18.13
2023-01-28T05:59:13.913Z,17.42
2023-01-28T06:01:48.299Z,16.10
2023-01-28T06:04:20.255Z,18.73
2023-01-28T06:06:52.099Z,16.08
2023-01-28T06:09:24.071Z,20.65
2023-01-28T06:11:56.609Z,18.20
2023-01-28T06:14:29.143Z,16.58
2023-01-28T06:17:20.317Z,17.98
2023-01-28T06:20:06.430Z,17.52
2023-01-28T06:22:38.513Z,19.20
2023-01-28T06:25:11.463Z,22.13
2023-01-28T06:27:43.424Z,21.58
2023-01-28T06:30:17.317Z,17.52
2023-01-28T06:32:57.493Z,19.58
2023-01-28T06:35:29.307Z,16.77
2023-01-28T06:38:01.121Z,16.45
2023-01-28T06:40:33.026Z,18.48
2023-01-28T06:43:05.642Z,21.52
2023-01-28T06:45:37.503Z,14.10
2023-01-28T06:48:09.711Z,13.93
2023-01-28T06:50:41.880Z,16.45
2023-01-28T06:53:14.184Z,17.50
2023-01-28T06:55:46.193Z,18.80
2023-01-28T06:58:18.085Z,18.10
2023-01-28T07:00:49.907Z,16.52
2023-01-28T07:03:21.907Z,18.92
2023-01-28T07:05:53.833Z,13.73
2023-01-28T07:08:26.635Z,15.45
2023-01-28T07:10:58.700Z,15.25
2023-01-28T07:13:30.697Z,16.85
2023-01-28T07:16:02.810Z,19.45
2023-01-28T07:18:34.891Z,13.65
2023-01-28T07:21:06.755Z,13.90
2023-01-28T07:23:39.985Z,18.20
2023-01-28T07:26:11.810Z,58.42
2023-01-28T07:28:43.739Z,13.10
2023-01-28T07:31:15.715Z,14.20
2023-01-28T07:33:47.736Z,16.20
2023-01-28T07:36:19.586Z,14.57
2023-01-28T07:38:51.536Z,14.13
2023-01-28T07:41:23.751Z,13.82
2023-01-28T07:43:55.919Z,14.15
2023-01-28T07:46:28.761Z,13.63
2023-01-28T07:49:00.612Z,14.25
2023-01-28T07:51:32.565Z,11.25
2023-01-28T07:54:04.622Z,14.85
2023-01-28T07:56:36.527Z,14.52
2023-01-28T07:59:08.368Z,12.82
2023-01-28T08:01:40.248Z,15.50
2023-01-28T08:04:12.217Z,11.93
2023-01-28T08:06:44.211Z,13.90
2023-01-28T08:09:16.123Z,14.57
2023-01-28T08:11:48.031Z,15.07
2023-01-28T08:14:19.986Z,13.20
2023-01-28T08:16:51.799Z,12.07
2023-01-28T08:19:23.763Z,11.88
2023-01-28T08:21:55.618Z,23.77
2023-01-28T08:24:46.412Z,11.52
2023-01-28T08:27:18.268Z,10.10
2023-01-28T08:29:50.394Z,14.00
2023-01-28T08:32:23.545Z,11.95
2023-01-28T08:34:55.433Z,14.05
2023-01-28T08:37:27.308Z,12.45
2023-01-28T08:39:59.171Z,12.68
2023-01-28T08:42:31.059Z,12.02
2023-01-28T08:45:02.977Z,16.00
2023-01-28T08:47:35.561Z,13.27
2023-01-28T08:50:08.090Z,12.50
2023-01-28T08:52:41.280Z,11.88
2023-01-28T08:55:14.004Z,9.68
2023-01-28T08:57:46.006Z,13.00
2023-01-28T09:00:18.245Z,14.80
2023-01-28T09:02:53.931Z,13.43
2023-01-28T09:05:25.845Z,13.48
2023-01-28T09:08:00.776Z,14.02
2023-01-28T09:10:34.546Z,13.80
2023-01-28T09:13:11.255Z,13.82
2023-01-28T09:15:45.759Z,14.50
2023-01-28T09:18:18.922Z,13.32
2023-01-28T09:20:51.039Z,16.40
2023-01-28T09:23:22.968Z,14.95
2023-01-28T09:26:01.231Z,17.35
2023-01-28T09:28:33.667Z,14.48
2023-01-28T09:31:10.439Z,14.55
2023-01-28T09:33:42.315Z,12.40
2023-01-28T09:36:14.165Z,14.45
2023-01-28T09:38:46.004Z,13.93
2023-01-28T09:41:29.449Z,13.73
2023-01-28T09:44:06.647Z,13.68
2023-01-28T09:46:45.719Z,12.77
2023-01-28T09:49:34.563Z,12.45
2023-01-28T09:52:12.403Z,13.00
2023-01-28T09:54:51.001Z,13.38
2023-01-28T09:57:24.124Z,12.95
2023-01-28T09:59:57.126Z,13.85
2023-01-28T10:02:37.712Z,13.80
2023-01-28T10:05:28.115Z,13.27
2023-01-28T10:08:23.029Z,13.15
2023-01-28T10:11:27.722Z,15.40
2023-01-28T10:14:16.084Z,16.45
2023-01-28T10:16:57.818Z,12.95
2023-01-28T10:19:35.926Z,12.80
2023-01-28T10:22:16.524Z,14.30
2023-01-28T10:25:06.220Z,15.73
2023-01-28T10:27:38.369Z,12.70
2023-01-28T10:30:33.727Z,13.80
2023-01-28T10:33:30.368Z,13.57
2023-01-28T10:36:02.443Z,13.95
2023-01-28T10:38:35.377Z,18.75
2023-01-28T10:41:11.449Z,13.75
2023-01-28T10:43:43.504Z,16.08
2023-01-28T10:46:32.137Z,11.75
2023-01-28T10:49:16.912Z,10.82
2023-01-28T10:51:48.785Z,12.43
2023-01-28T10:54:28.581Z,16.17
2023-01-28T10:57:07.701Z,13.52
2023-01-28T10:59:43.357Z,13.63
2023-01-28T11:02:32.696Z,11.73
2023-01-28T11:05:21.106Z,13.32
2023-01-28T11:08:16.702Z,10.82
2023-01-28T11:10:49.454Z,9.93
2023-01-28T11:13:29.562Z,12.43
2023-01-28T11:16:05.382Z,9.82
2023-01-28T11:18:46.283Z,11.77
2023-01-28T11:21:25.315Z,14.18
2023-01-28T11:24:14.457Z,11.75
2023-01-28T11:26:50.658Z,14.13
2023-01-28T11:29:32.302Z,12.63
2023-01-28T11:32:04.717Z,10.82
2023-01-28T11:34:36.696Z,10.60
2023-01-28T11:37:16.321Z,11.00
2023-01-28T11:39:48.307Z,11.20
2023-01-28T11:42:21.908Z,9.98
2023-01-28T11:44:54.359Z,9.48
2023-01-28T11:47:44.714Z,9.32
2023-01-28T11:50:47.244Z,10.45
2023-01-28T11:53:40.458Z,9.25
2023-01-28T11:56:46.466Z,10.07
2023-01-28T11:59:29.919Z,10.77
2023-01-28T12:02:19.728Z,10.05
2023-01-28T12:05:03.962Z,11.95
2023-01-28T12:07:42.396Z,9.52
2023-01-28T12:10:41.801Z,10.60
2023-01-28T12:13:28.299Z,12.00
2023-01-28T12:16:36.315Z,15.68
2023-01-28T12:19:50.689Z,10.00
2023-01-28T12:22:37.735Z,11.80
2023-01-28T12:25:31.302Z,12.77
2023-01-28T12:28:15.813Z,10.93
2023-01-28T12:31:11.519Z,9.55
2023-01-28T12:33:54.458Z,10.85
2023-01-28T12:36:51.357Z,9.65
2023-01-28T12:40:01.987Z,11.13
2023-01-28T12:42:50.311Z,8.70
2023-01-28T12:45:56.576Z,8.32
2023-01-28T12:48:38.886Z,8.20
2023-01-28T12:51:24.646Z,7.30
2023-01-28T12:54:10.405Z,11.18
2023-01-28T12:56:45.980Z,8.80
2023-01-28T12:59:43.501Z,7.72
2023-01-28T13:02:25.037Z,8.65
2023-01-28T13:08:05.476Z,7.70
2023-01-28T13:10:46.643Z,8.57
2023-01-28T13:13:21.869Z,10.73
2023-01-28T13:15:53.814Z,8.25
2023-01-28T13:18:39.685Z,9.00
2023-01-28T13:21:27.921Z,9.70
2023-01-28T13:24:02.530Z,9.38
2023-01-28T13:26:45.244Z,9.65
2023-01-28T13:29:26.306Z,10.80
2023-01-28T13:32:02.027Z,9.25
2023-01-28T13:34:45.814Z,10.05
2023-01-28T13:37:40.551Z,8.35
2023-01-28T13:40:15.520Z,9.77
2023-01-28T13:42:59.669Z,10.30
2023-01-28T13:45:35.553Z,8.55
2023-01-28T13:48:39.705Z,9.10
2023-01-28T13:51:31.015Z,8.57
2023-01-28T13:54:19.106Z,11.32
2023-01-28T13:57:00.198Z,10.10
2023-01-28T13:59:47.612Z,10.30
2023-01-28T14:02:42.297Z,9.73
2023-01-28T14:05:20.267Z,9.43
2023-01-28T14:08:13.835Z,8.95
2023-01-28T14:11:09.907Z,9.95
2023-01-28T14:13:59.825Z,9.38
2023-01-28T14:16:52.797Z,11.65
2023-01-28T14:19:32.811Z,8.70
2023-01-28T14:22:09.306Z,9.85
2023-01-28T14:24:41.206Z,11.73
2023-01-28T14:27:28.233Z,11.60
2023-01-28T14:30:24.338Z,11.65
2023-01-28T14:32:58.897Z,10.45
2023-01-28T14:35:37.664Z,12.02
2023-01-28T14:38:16.576Z,9.25
2023-01-28T14:40:54.278Z,11.00
2023-01-28T14:43:27.686Z,10.57
2023-01-28T14:45:59.579Z,10.27
2023-01-28T14:48:52.612Z,10.55
2023-01-28T14:51:43.550Z,9.68
2023-01-28T14:54:21.293Z,12.25
2023-01-28T14:57:19.213Z,10.98
2023-01-28T14:59:58.309Z,12.30
2023-01-28T15:02:31.823Z,13.35
2023-01-28T15:05:15.343Z,10.13
2023-01-28T15:07:49.219Z,10.30
2023-01-28T15:10:26.980Z,10.52
2023-01-28T15:13:04.736Z,11.50
2023-01-28T15:15:42.543Z,13.85
2023-01-28T15:18:23.260Z,15.07
2023-01-28T15:20:56.610Z,22.20
2023-01-28T15:23:36.605Z,46.95
2023-01-28T15:26:18.156Z,22.42
2023-01-28T15:28:52.579Z,34.20
2023-01-28T15:31:28.897Z,34.53
2023-01-28T15:34:13.927Z,36.03
2023-01-28T15:36:47.888Z,40.42
2023-01-28T15:39:22.374Z,37.83
2023-01-28T15:42:01.968Z,28.85
2023-01-28T15:44:37.044Z,28.27
2023-01-28T15:47:32.591Z,27.75
2023-01-28T15:50:07.293Z,21.33
2023-01-28T15:52:42.164Z,17.95
2023-01-28T15:55:36.231Z,20.65
2023-01-28T15:58:26.585Z,17.85
2023-01-28T16:01:24.674Z,18.00
2023-01-28T16:04:03.884Z,17.50
2023-01-28T16:06:43.391Z,21.75
2023-01-28T16:09:24.215Z,19.45
2023-01-28T16:12:08.631Z,15.13
2023-01-28T16:14:46.476Z,15.40
2023-01-28T16:17:22.597Z,12.15
2023-01-28T16:20:04.343Z,13.38
2023-01-28T16:22:43.651Z,19.50
2023-01-28T16:25:24.188Z,17.13
2023-01-28T16:28:00.588Z,59.45
2023-01-28T16:30:32.699Z,51.88
2023-01-28T16:33:04.547Z,28.42
2023-01-28T16:36:01.296Z,27.48
2023-01-28T16:43:31.736Z,20.63
2023-01-28T16:46:09.296Z,23.85
2023-01-28T16:48:42.069Z,20.30
2023-01-28T16:51:18.478Z,17.55
2023-01-28T16:53:51.915Z,19.67
2023-01-28T16:56:46.219Z,18.05
2023-01-28T16:59:19.237Z,17.95
2023-01-28T17:01:51.453Z,19.42
2023-01-28T17:04:25.065Z,16.05
2023-01-28T17:06:58.391Z,19.42
2023-01-28T17:09:30.635Z,19.05
2023-01-28T17:12:03.091Z,25.73
2023-01-28T17:14:39.338Z,21.35
2023-01-28T17:17:11.278Z,19.52
2023-01-28T17:19:43.084Z,17.63
2023-01-28T17:22:15.040Z,24.20
2023-01-28T17:24:46.920Z,25.80
2023-01-28T17:27:21.343Z,21.20
2023-01-28T17:29:53.687Z,23.33
2023-01-28T17:32:28.659Z,19.95
2023-01-28T17:35:01.559Z,23.05
2023-01-28T17:37:33.418Z,19.25
2023-01-28T17:40:05.811Z,19.27
2023-01-28T17:42:37.986Z,18.45
2023-01-28T17:45:10.016Z,25.98
2023-01-28T17:47:41.858Z,22.17
2023-01-28T17:50:14.856Z,21.38
2023-01-28T17:52:46.779Z,18.15
2023-01-28T17:55:18.736Z,21.55
2023-01-28T17:57:50.779Z,22.80
2023-01-28T18:00:22.893Z,19.45
2023-01-28T18:02:56.384Z,22.92
2023-01-28T18:05:29.235Z,26.00
2023-01-28T18:08:01.105Z,22.13
2023-01-28T18:10:33.252Z,21.10
2023-01-28T18:13:05.609Z,22.95
2023-01-28T18:15:37.488Z,20.70
2023-01-28T18:18:09.992Z,29.85
2023-01-28T18:20:41.831Z,26.60
2023-01-28T18:23:14.715Z,23.90
2023-01-28T18:25:46.563Z,19.92
2023-01-28T18:28:18.895Z,25.30
2023-01-28T18:30:51.543Z,19.63
2023-01-28T18:33:23.960Z,26.27
2023-01-28T18:35:55.880Z,22.60
2023-01-28T18:38:27.730Z,20.45
2023-01-28T18:40:59.528Z,23.42
2023-01-28T18:43:32.906Z,18.50
2023-01-28T18:46:13.138Z,24.42
2023-01-28T18:48:45.122Z,25.95
2023-01-28T18:51:29.355Z,20.77
2023-01-28T18:54:04.622Z,20.08
2023-01-28T18:56:36.558Z,25.35
2023-01-28T18:59:11.898Z,22.75
2023-01-28T19:01:43.924Z,23.23
2023-01-28T19:04:16.058Z,18.10
2023-01-28T19:06:48.309Z,19.58
2023-01-28T19:09:20.270Z,19.88
2023-01-28T19:11:52.379Z,21.77
2023-01-28T19:14:24.218Z,19.83
2023-01-28T19:16:56.118Z,19.65
2023-01-28T19:19:27.990Z,25.88
2023-01-28T19:21:59.869Z,23.98
2023-01-28T19:24:31.942Z,22.55
2023-01-28T19:27:03.886Z,21.38
2023-01-28T19:29:35.877Z,24.23
2023-01-28T19:32:07.985Z,20.40
2023-01-28T19:34:40.175Z,21.15
2023-01-28T19:37:12.168Z,22.15
2023-01-28T19:39:44.397Z,24.95
2023-01-28T19:42:16.457Z,22.63
2023-01-28T19:44:48.300Z,21.05
2023-01-28T19:47:20.379Z,23.88
2023-01-28T19:49:52.199Z,26.17
2023-01-28T19:52:24.206Z,22.50
2023-01-28T19:54:56.523Z,21.80
2023-01-28T19:57:28.432Z,23.05
2023-01-28T20:00:00.337Z,21.08
2023-01-28T20:02:32.358Z,23.10
2023-01-28T20:05:04.906Z,20.10
2023-01-28T20:07:36.746Z,23.17
2023-01-28T20:10:11.902Z,28.45
2023-01-28T20:12:44.257Z,24.25
2023-01-28T20:15:16.610Z,24.90
2023-01-28T20:17:48.807Z,22.13
2023-01-28T20:20:21.027Z,22.70
2023-01-28T20:22:52.838Z,21.40
2023-01-28T20:25:24.716Z,21.90
2023-01-28T20:27:56.648Z,21.17
2023-01-28T20:30:28.530Z,16.40
2023-01-28T20:33:00.424Z,22.63
2023-01-28T20:35:32.238Z,20.80
2023-01-28T20:38:04.348Z,22.83
2023-01-28T20:40:37.380Z,22.98
2023-01-28T20:43:09.520Z,18.35
2023-01-28T20:45:41.468Z,20.33
2023-01-28T20:48:13.336Z,22.65
2023-01-28T20:50:45.293Z,20.43
2023-01-28T20:53:17.247Z,17.90
2023-01-28T20:56:08.509Z,20.90
2023-01-28T20:58:41.631Z,14.45
2023-01-28T21:01:18.554Z,17.70
2023-01-28T21:03:50.763Z,59.92
2023-01-28T21:06:23.793Z,41.40
2023-01-28T21:08:57.137Z,21.25
2023-01-28T21:11:29.499Z,18.60
2023-01-28T21:14:01.336Z,18.20
2023-01-28T21:16:33.175Z,16.42
2023-01-28T21:19:05.052Z,17.17
2023-01-28T21:21:37.847Z,14.90
2023-01-28T21:24:11.600Z,19.50
2023-01-28T21:26:43.562Z,18.52
2023-01-28T21:29:15.994Z,16.73
2023-01-28T21:31:47.987Z,17.77
2023-01-28T21:34:19.914Z,17.60
2023-01-28T21:36:51.869Z,17.50
2023-01-28T21:39:23.979Z,23.55
2023-01-28T21:41:55.847Z,19.90
2023-01-28T21:44:27.756Z,19.15
2023-01-28T21:46:59.665Z,17.38
2023-01-28T21:49:31.487Z,17.73
2023-01-28T21:52:03.352Z,20.00
2023-01-28T21:54:35.950Z,16.83
2023-01-28T21:57:07.914Z,16.45
2023-01-28T21:59:41.200Z,19.08
2023-01-28T22:02:14.754Z,15.43
2023-01-28T22:04:49.031Z,16.27
2023-01-28T22:07:21.305Z,15.98
2023-01-28T22:09:56.254Z,18.08
2023-01-28T22:12:28.373Z,16.50
2023-01-28T22:15:00.301Z,20.67
2023-01-28T22:17:32.843Z,16.63
2023-01-28T22:20:05.336Z,14.13
2023-01-28T22:22:37.199Z,17.65
2023-01-28T22:25:09.666Z,17.65
2023-01-28T22:27:41.592Z,14.73
2023-01-28T22:30:14.137Z,16.65
2023-01-28T22:32:46.388Z,16.27
2023-01-28T22:35:18.451Z,13.50
2023-01-28T22:37:50.424Z,12.70
2023-01-28T22:40:22.364Z,15.55
2023-01-28T22:42:54.382Z,15.05
2023-01-28T22:45:26.358Z,11.38
2023-01-28T22:47:58.397Z,17.75
2023-01-28T22:50:30.381Z,12.57
2023-01-28T22:53:03.333Z,12.73
2023-01-28T22:55:35.247Z,12.25
2023-01-28T22:58:09.206Z,12.73
2023-01-28T23:00:41.182Z,15.90
2023-01-28T23:03:13.065Z,13.23
2023-01-28T23:05:44.988Z,12.48
2023-01-28T23:08:16.871Z,14.82
2023-01-28T23:10:53.057Z,12.80
2023-01-28T23:13:26.759Z,12.07
2023-01-28T23:16:17.108Z,12.45
2023-01-28T23:19:07.577Z,12.85
2023-01-28T23:21:58.019Z,14.90
2023-01-28T23:24:30.748Z,12.30
2023-01-28T23:27:05.639Z,11.85
2023-01-28T23:29:37.558Z,11.68
2023-01-28T23:32:10.907Z,12.52
2023-01-28T23:34:46.776Z,12.45
2023-01-28T23:37:18.851Z,12.90
2023-01-28T23:39:50.724Z,10.90
2023-01-28T23:42:23.625Z,12.15
2023-01-28T23:44:55.463Z,14.68
2023-01-28T23:47:27.486Z,12.25
2023-01-28T23:49:59.747Z,15.48
2023-01-28T23:52:31.882Z,11.43
2023-01-28T23:55:04.275Z,13.50
2023-01-28T23:57:36.909Z,10.60
